Terminal Aerodrome Forecast
Issued by NWS Portland, OR

Home | Current Version | Previous Version | Text Only | Print | Product List | Glossary On
Versions: 1 2 3 4 5 6 7 8 9 10 11 12 13 14 15 16 17 18 19 20 21 22 23 24 25 26 27 28 29 30 31 32 33 34
000
FTUS46 KPQR 180706 AAA
TAFSLE
TAF AMD
KSLE 180706Z 1807/1906 VRB03KT P6SM -RA SCT008 BKN035 OVC050
      TEMPO 1807/1810 2SM BR SCT004 OVC015
     FM181500 17007KT P6SM SCT025 BKN050
     FM190000 18009KT P6SM -RA SCT030 OVC060=

USA.gov is the U.S. government's official web portal to all federal, state and local government web resources and services.